createdAt,value
2023-02-22T00:02:25.098Z,73.36
2023-02-22T00:07:28.186Z,73.64
2023-02-22T00:12:32.099Z,73.77
2023-02-22T00:17:34.685Z,74.07
2023-02-22T00:22:37.805Z,73.93
2023-02-22T00:27:44.007Z,74.27
2023-02-22T00:32:48.342Z,74.32
2023-02-22T00:37:53.062Z,74.34
2023-02-22T00:42:55.491Z,74.31
2023-02-22T00:47:57.843Z,74.66
2023-02-22T00:53:01.769Z,74.72
2023-02-22T00:58:05.495Z,74.89
2023-02-22T01:03:11.355Z,75.15
2023-02-22T01:08:16.376Z,75.29
2023-02-22T01:13:19.826Z,75.59
2023-02-22T01:18:23.385Z,75.74
2023-02-22T01:23:26.496Z,75.56
2023-02-22T01:28:29.670Z,75.55
2023-02-22T01:33:34.177Z,75.76
2023-02-22T01:38:38.869Z,75.41
2023-02-22T01:43:42.051Z,75.57
2023-02-22T01:49:02.166Z,75.73
2023-02-22T01:54:29.277Z,75.53
2023-02-22T01:59:37.334Z,75.43
2023-02-22T02:04:42.602Z,75.68
2023-02-22T02:09:52.582Z,75.83
2023-02-22T02:15:17.726Z,75.88
2023-02-22T02:20:36.913Z,75.92
2023-02-22T02:26:11.132Z,76.08
2023-02-22T02:31:19.816Z,76.22
2023-02-22T02:36:44.956Z,76.05
2023-02-22T02:41:50.849Z,76.06
2023-02-22T02:47:01.586Z,76.20
2023-02-22T02:52:05.917Z,76.40
2023-02-22T02:57:09.030Z,76.40
2023-02-22T03:02:21.816Z,76.31
2023-02-22T03:07:34.816Z,76.38
2023-02-22T03:13:15.407Z,76.16
2023-02-22T03:18:40.408Z,76.52
2023-02-22T03:24:04.248Z,76.39
2023-02-22T03:29:10.862Z,76.68
2023-02-22T03:34:22.194Z,77.04
2023-02-22T03:39:31.506Z,77.06
2023-02-22T03:44:37.579Z,76.64
2023-02-22T03:50:07.218Z,76.78
2023-02-22T03:55:12.526Z,77.01
2023-02-22T04:00:20.146Z,77.41
2023-02-22T04:05:25.800Z,77.47
2023-02-22T04:10:29.906Z,77.68
2023-02-22T04:15:32.536Z,77.79
2023-02-22T04:20:35.825Z,78.15
2023-02-22T04:25:40.050Z,77.97
2023-02-22T04:30:44.134Z,78.57
2023-02-22T04:35:46.836Z,78.59
2023-02-22T04:40:48.997Z,78.47
2023-02-22T04:45:52.173Z,78.97
2023-02-22T04:50:55.284Z,79.08
2023-02-22T04:55:57.981Z,78.64
2023-02-22T05:01:01.290Z,78.29
2023-02-22T05:06:03.336Z,79.19
2023-02-22T05:11:06.514Z,79.18
2023-02-22T05:16:46.924Z,79.39
2023-02-22T05:21:50.149Z,79.43
2023-02-22T05:26:53.492Z,79.71
2023-02-22T05:31:59.684Z,79.77
2023-02-22T05:37:04.293Z,79.76
2023-02-22T05:42:07.246Z,79.88
2023-02-22T05:47:10.297Z,80.46
2023-02-22T05:52:13.686Z,80.27
2023-02-22T05:57:16.708Z,80.27
2023-02-22T06:02:19.815Z,80.34
2023-02-22T06:07:23.362Z,80.33
2023-02-22T06:12:26.529Z,80.51
2023-02-22T06:17:30.897Z,80.03
2023-02-22T06:22:33.341Z,80.39
2023-02-22T06:27:37.292Z,80.51
2023-02-22T06:32:40.431Z,80.92
2023-02-22T06:37:43.659Z,81.01
2023-02-22T06:42:49.767Z,81.04
2023-02-22T06:47:53.644Z,80.94
2023-02-22T06:52:59.013Z,81.09
2023-02-22T06:58:03.710Z,81.11
2023-02-22T07:03:07.667Z,81.28
2023-02-22T07:08:11.692Z,81.06
2023-02-22T07:13:15.068Z,81.55
2023-02-22T07:18:18.779Z,81.75
2023-02-22T07:23:24.559Z,81.72
2023-02-22T07:28:28.837Z,82.00
2023-02-22T07:33:31.659Z,81.89
2023-02-22T07:38:34.681Z,81.78
2023-02-22T07:43:38.326Z,81.89
2023-02-22T07:48:42.852Z,81.67
2023-02-22T07:53:46.917Z,81.61
2023-02-22T07:58:50.803Z,81.45
2023-02-22T08:03:54.193Z,81.42
2023-02-22T08:08:58.331Z,81.29
2023-02-22T08:14:01.298Z,81.11
2023-02-22T08:19:03.385Z,80.91
2023-02-22T08:24:07.685Z,80.62
2023-02-22T08:29:10.986Z,80.13
2023-02-22T08:34:13.814Z,80.03
2023-02-22T08:39:17.279Z,80.15
2023-02-22T08:44:21.498Z,79.58
2023-02-22T08:49:24.629Z,78.94
2023-02-22T08:54:28.254Z,78.76
2023-02-22T08:59:32.114Z,78.45
2023-02-22T09:04:36.738Z,78.43
2023-02-22T09:09:42.620Z,77.97
2023-02-22T09:14:46.165Z,77.48
2023-02-22T09:19:48.778Z,76.75
2023-02-22T09:24:53.703Z,76.85
2023-02-22T09:29:58.482Z,76.25
2023-02-22T09:35:01.907Z,75.59
2023-02-22T09:40:10.150Z,74.80
2023-02-22T09:45:48.787Z,74.54
2023-02-22T09:50:55.267Z,74.36
2023-02-22T09:56:07.686Z,74.46
2023-02-22T10:01:27.860Z,73.81
2023-02-22T10:06:33.756Z,73.73
2023-02-22T10:12:00.889Z,73.56
2023-02-22T10:17:32.012Z,73.15
2023-02-22T10:22:43.815Z,72.48
2023-02-22T10:27:57.612Z,72.10
2023-02-22T10:33:12.176Z,72.43
2023-02-22T10:38:16.339Z,72.01
2023-02-22T10:43:20.262Z,71.53
2023-02-22T10:48:28.383Z,71.64
2023-02-22T10:53:32.931Z,71.16
2023-02-22T10:58:47.849Z,70.94
2023-02-22T11:04:12.656Z,70.85
2023-02-22T11:09:24.522Z,71.62
2023-02-22T11:14:31.103Z,71.20
2023-02-22T11:19:37.037Z,70.76
2023-02-22T11:24:49.443Z,70.62
2023-02-22T11:29:53.174Z,70.80
2023-02-22T11:35:29.076Z,71.03
2023-02-22T11:40:33.921Z,70.49
2023-02-22T11:45:49.838Z,70.08
2023-02-22T11:51:28.148Z,69.66
2023-02-22T11:56:44.679Z,69.87
2023-02-22T12:01:57.672Z,70.24
2023-02-22T12:07:10.724Z,69.34
2023-02-22T12:12:31.127Z,69.01
2023-02-22T12:17:43.617Z,68.76
2023-02-22T12:23:20.365Z,68.93
2023-02-22T12:28:37.951Z,69.10
2023-02-22T12:34:01.410Z,68.59
2023-02-22T12:39:26.763Z,67.93
2023-02-22T12:44:36.027Z,67.07
2023-02-22T12:49:43.321Z,66.78
2023-02-22T12:54:56.352Z,66.61
2023-02-22T13:00:12.113Z,67.22
2023-02-22T13:05:20.968Z,67.21
2023-02-22T13:10:34.536Z,67.12
2023-02-22T13:15:59.885Z,67.46
2023-02-22T13:21:30.604Z,66.75
2023-02-22T13:26:39.846Z,66.96
2023-02-22T13:32:20.833Z,66.62
2023-02-22T13:38:01.189Z,66.16
2023-02-22T13:43:25.506Z,66.50
2023-02-22T13:48:38.961Z,66.58
2023-02-22T13:53:56.314Z,66.45
2023-02-22T13:59:03.671Z,66.39
2023-02-22T14:04:24.657Z,66.55
2023-02-22T14:09:49.076Z,65.90
2023-02-22T14:15:29.768Z,65.69
2023-02-22T14:20:40.141Z,65.80
2023-02-22T14:25:44.553Z,65.69
2023-02-22T14:30:49.158Z,65.44
2023-02-22T14:35:55.849Z,65.55
2023-02-22T14:41:03.096Z,65.39
2023-02-22T14:46:13.428Z,65.34
2023-02-22T14:51:26.951Z,65.64
2023-02-22T14:56:54.310Z,65.22
2023-02-22T15:02:15.367Z,64.83
2023-02-22T15:07:27.904Z,65.40
2023-02-22T15:12:31.875Z,65.65
2023-02-22T15:17:35.014Z,65.85
2023-02-22T15:22:38.746Z,65.87
2023-02-22T15:27:47.555Z,65.97
2023-02-22T15:33:03.549Z,66.40
2023-02-22T15:38:13.507Z,66.21
2023-02-22T15:43:25.751Z,66.40
2023-02-22T15:48:32.232Z,66.58
2023-02-22T15:53:45.291Z,66.88
2023-02-22T15:58:54.227Z,67.10
2023-02-22T16:03:59.088Z,67.20
2023-02-22T16:09:25.558Z,67.44
2023-02-22T16:14:30.204Z,67.69
2023-02-22T16:19:42.649Z,67.62
2023-02-22T16:24:52.192Z,67.99
2023-02-22T16:30:29.598Z,68.30
2023-02-22T16:35:35.200Z,68.58
2023-02-22T16:40:44.798Z,68.93
2023-02-22T16:45:48.464Z,69.20
2023-02-22T16:50:54.007Z,69.22
2023-02-22T16:56:03.242Z,69.59
2023-02-22T17:01:06.634Z,69.82
2023-02-22T17:06:12.568Z,69.96
2023-02-22T17:11:16.989Z,69.98
2023-02-22T17:16:22.170Z,70.22
2023-02-22T17:21:25.912Z,70.51
2023-02-22T17:26:30.030Z,70.78
2023-02-22T17:31:35.359Z,70.97
2023-02-22T17:36:38.360Z,70.85
2023-02-22T17:41:41.787Z,71.08
2023-02-22T17:46:45.544Z,71.28
2023-02-22T17:51:49.869Z,71.45
2023-02-22T17:56:56.789Z,71.51
2023-02-22T18:02:01.885Z,71.27
2023-02-22T18:07:06.077Z,71.46
2023-02-22T18:12:10.948Z,71.52
2023-02-22T18:17:14.623Z,71.50
2023-02-22T18:22:20.388Z,71.56
2023-02-22T18:27:25.613Z,71.45
2023-02-22T18:32:31.991Z,71.50
2023-02-22T18:37:35.202Z,71.76
2023-02-22T18:42:39.520Z,71.63
2023-02-22T18:47:43.384Z,71.97
2023-02-22T18:52:46.640Z,72.10
2023-02-22T18:57:56.468Z,72.08
2023-02-22T19:03:00.597Z,72.04
2023-02-22T19:08:04.520Z,72.16
2023-02-22T19:13:11.523Z,72.51
2023-02-22T19:18:16.946Z,72.02
2023-02-22T19:23:20.097Z,72.43
2023-02-22T19:28:29.031Z,72.19
2023-02-22T19:33:32.333Z,72.12
2023-02-22T19:38:37.451Z,72.18
2023-02-22T19:43:41.532Z,72.32
2023-02-22T19:48:46.536Z,72.23
2023-02-22T19:53:50.247Z,72.36
2023-02-22T19:58:56.246Z,72.30
2023-02-22T20:04:03.770Z,72.44
2023-02-22T20:09:20.763Z,72.58
2023-02-22T20:14:28.852Z,72.30
2023-02-22T20:19:33.101Z,72.11
2023-02-22T20:24:38.032Z,72.10
2023-02-22T20:29:42.444Z,71.75
2023-02-22T20:34:47.102Z,72.06
2023-02-22T20:39:54.890Z,71.78
2023-02-22T20:45:01.606Z,71.85
2023-02-22T20:50:06.062Z,71.59
2023-02-22T20:55:11.837Z,71.86
2023-02-22T21:00:19.266Z,71.64
2023-02-22T21:05:22.342Z,72.15
2023-02-22T21:10:29.940Z,71.59
2023-02-22T21:15:35.235Z,71.94
2023-02-22T21:20:41.842Z,72.11
2023-02-22T21:25:51.729Z,71.73
2023-02-22T21:30:55.170Z,72.05
2023-02-22T21:35:57.535Z,71.99
2023-02-22T21:41:03.094Z,72.53
2023-02-22T21:46:07.668Z,72.29
2023-02-22T21:51:23.333Z,72.32
2023-02-22T21:56:29.685Z,72.07
2023-02-22T22:01:36.956Z,72.18
2023-02-22T22:06:39.232Z,72.30
2023-02-22T22:11:42.301Z,71.87
2023-02-22T22:16:50.217Z,71.72
2023-02-22T22:21:53.955Z,71.60
2023-02-22T22:26:56.251Z,71.55
2023-02-22T22:31:59.069Z,71.89
2023-02-22T22:37:02.741Z,71.95
2023-02-22T22:42:05.465Z,71.77
2023-02-22T22:47:12.973Z,71.89
2023-02-22T22:52:16.247Z,72.12
2023-02-22T22:57:19.623Z,72.15
2023-02-22T23:02:24.641Z,72.21
2023-02-22T23:07:28.420Z,72.31
2023-02-22T23:12:31.585Z,72.19
2023-02-22T23:17:41.025Z,72.39
2023-02-22T23:22:47.475Z,72.63
2023-02-22T23:27:51.291Z,72.36
2023-02-22T23:33:00.695Z,72.47
2023-02-22T23:38:08.362Z,72.32
2023-02-22T23:43:12.995Z,72.37
2023-02-22T23:48:20.752Z,72.35
2023-02-22T23:53:26.073Z,71.87
2023-02-22T23:58:30.280Z,71.88
